createdAt,value
2018-01-14T00:00:37.730Z,72.12
2018-01-14T00:01:37.756Z,71.74
2018-01-14T00:03:30.887Z,71.93
2018-01-14T00:04:30.887Z,71.93
2018-01-14T00:06:24.050Z,71.93
2018-01-14T00:07:24.054Z,72.03
2018-01-14T00:09:17.201Z,71.93
2018-01-14T00:10:17.208Z,72.60
2018-01-14T00:12:09.380Z,72.78
2018-01-14T00:13:09.380Z,72.22
2018-01-14T00:15:01.576Z,71.84
2018-01-14T00:16:01.596Z,72.12
2018-01-14T00:17:54.747Z,73.07
2018-01-14T00:18:54.748Z,73.07
2018-01-14T00:20:46.876Z,72.69
2018-01-14T00:21:46.901Z,72.56
2018-01-14T00:23:56.538Z,73.03
2018-01-14T00:24:56.541Z,73.41
2018-01-14T00:26:48.715Z,72.94
2018-01-14T00:27:48.703Z,73.69
2018-01-14T00:29:40.899Z,73.22
2018-01-14T00:30:40.910Z,72.94
2018-01-14T00:32:33.087Z,73.03
2018-01-14T00:33:33.090Z,73.50
2018-01-14T00:35:25.237Z,73.32
2018-01-14T00:36:25.251Z,73.32
2018-01-14T00:38:17.481Z,72.85
2018-01-14T00:39:17.487Z,72.94
2018-01-14T00:41:09.709Z,72.94
2018-01-14T00:42:09.708Z,72.94
2018-01-14T00:44:02.854Z,73.22
2018-01-14T00:45:02.865Z,73.50
2018-01-14T00:46:55.038Z,73.32
2018-01-14T00:47:55.014Z,73.22
2018-01-14T00:49:47.259Z,73.22
2018-01-14T00:50:47.257Z,73.22
2018-01-14T00:52:40.430Z,73.32
2018-01-14T00:53:40.430Z,73.50
2018-01-14T00:55:32.656Z,73.60
2018-01-14T00:56:32.661Z,73.22
2018-01-14T00:58:38.292Z,73.60
2018-01-14T00:59:38.284Z,73.13
2018-01-14T01:01:30.438Z,73.03
2018-01-14T01:02:30.445Z,73.79
2018-01-14T01:04:22.681Z,73.13
2018-01-14T01:05:22.675Z,73.88
2018-01-14T01:07:14.850Z,73.69
2018-01-14T01:08:14.853Z,73.50
2018-01-14T01:10:08.071Z,73.41
2018-01-14T01:11:08.086Z,73.41
2018-01-14T01:13:11.269Z,73.22
2018-01-14T01:14:11.262Z,73.03
2018-01-14T01:16:03.480Z,73.22
2018-01-14T01:17:03.540Z,73.22
2018-01-14T01:18:55.739Z,73.13
2018-01-14T01:19:55.751Z,73.79
2018-01-14T01:22:04.262Z,74.07
2018-01-14T01:23:04.251Z,73.79
2018-01-14T01:25:12.784Z,73.60
2018-01-14T01:26:12.790Z,73.79
2018-01-14T01:28:05.017Z,73.60
2018-01-14T01:29:05.021Z,74.55
2018-01-14T01:30:57.181Z,73.79
2018-01-14T01:31:57.192Z,73.88
2018-01-14T01:33:49.385Z,73.98
2018-01-14T01:34:49.399Z,74.36
2018-01-14T01:36:58.017Z,74.36
2018-01-14T01:37:57.910Z,74.07
2018-01-14T01:39:50.100Z,73.50
2018-01-14T01:40:50.089Z,74.07
2018-01-14T01:42:42.282Z,74.07
2018-01-14T01:43:42.301Z,73.98
2018-01-14T01:45:34.513Z,73.88
2018-01-14T01:46:34.526Z,73.98
2018-01-14T01:48:26.756Z,74.07
2018-01-14T01:49:26.763Z,73.69
2018-01-14T01:51:18.972Z,73.98
2018-01-14T01:52:18.986Z,74.26
2018-01-14T01:54:11.196Z,74.36
2018-01-14T01:55:11.199Z,74.07
2018-01-14T01:57:15.039Z,73.69
2018-01-14T01:58:15.035Z,73.60
2018-01-14T02:00:07.289Z,74.26
2018-01-14T02:01:07.267Z,74.45
2018-01-14T02:02:59.490Z,74.36
2018-01-14T02:03:59.502Z,74.07
2018-01-14T02:05:51.720Z,74.17
2018-01-14T02:06:51.735Z,74.17
2018-01-14T02:08:43.963Z,74.55
2018-01-14T02:09:43.963Z,74.07
2018-01-14T02:11:36.242Z,74.45
2018-01-14T02:12:36.259Z,75.21
2018-01-14T02:14:28.457Z,75.12
2018-01-14T02:15:28.445Z,73.69
2018-01-14T02:17:20.629Z,74.45
2018-01-14T02:18:20.655Z,74.41
2018-01-14T02:20:12.792Z,75.02
2018-01-14T02:21:12.786Z,74.45
2018-01-14T02:23:04.970Z,74.45
2018-01-14T02:24:04.986Z,74.83
2018-01-14T02:26:13.583Z,74.88
2018-01-14T02:27:13.592Z,75.17
2018-01-14T02:29:05.826Z,74.64
2018-01-14T02:30:05.829Z,74.93
2018-01-14T02:31:58.062Z,74.74
2018-01-14T02:32:58.066Z,74.69
2018-01-14T02:34:50.256Z,74.69
2018-01-14T02:35:50.259Z,74.98
2018-01-14T02:37:42.739Z,74.51
2018-01-14T02:38:42.497Z,74.69
2018-01-14T02:40:51.012Z,74.83
2018-01-14T02:41:51.018Z,75.02
2018-01-14T02:43:43.198Z,74.79
2018-01-14T02:44:43.198Z,74.69
2018-01-14T02:46:35.392Z,74.79
2018-01-14T02:47:35.396Z,74.32
2018-01-14T02:49:27.568Z,74.88
2018-01-14T02:50:27.580Z,74.88
2018-01-14T02:52:19.705Z,74.13
2018-01-14T02:53:19.715Z,74.60
2018-01-14T02:55:11.954Z,74.45
2018-01-14T02:56:11.917Z,74.04
2018-01-14T02:58:04.181Z,74.22
2018-01-14T02:59:04.156Z,74.69
2018-01-14T03:00:56.401Z,75.07
2018-01-14T03:01:56.405Z,74.22
2018-01-14T03:03:48.613Z,74.69
2018-01-14T03:04:48.595Z,74.69
2018-01-14T03:06:40.765Z,74.69
2018-01-14T03:07:40.777Z,74.41
2018-01-14T03:09:32.937Z,75.07
2018-01-14T03:10:32.962Z,74.51
2018-01-14T03:12:26.093Z,74.51
2018-01-14T03:13:26.081Z,74.13
2018-01-14T03:15:18.404Z,75.07
2018-01-14T03:16:18.380Z,74.36
2018-01-14T03:18:11.569Z,74.32
2018-01-14T03:19:11.596Z,73.66
2018-01-14T03:21:03.763Z,74.32
2018-01-14T03:22:03.745Z,74.32
2018-01-14T03:23:56.899Z,74.79
2018-01-14T03:24:56.895Z,74.98
2018-01-14T03:26:49.090Z,74.32
2018-01-14T03:27:49.095Z,74.79
2018-01-14T03:29:41.268Z,74.98
2018-01-14T03:30:41.286Z,74.88
2018-01-14T03:32:33.439Z,75.17
2018-01-14T03:33:33.470Z,74.88
2018-01-14T03:35:25.657Z,74.60
2018-01-14T03:36:25.644Z,74.51
2018-01-14T03:38:17.821Z,74.79
2018-01-14T03:39:17.846Z,74.69
2018-01-14T03:41:10.999Z,74.60
2018-01-14T03:42:11.000Z,74.79
2018-01-14T03:44:04.139Z,74.79
2018-01-14T03:45:04.144Z,75.07
2018-01-14T03:46:57.332Z,75.26
2018-01-14T03:47:57.310Z,74.98
2018-01-14T03:49:49.786Z,75.17
2018-01-14T03:50:49.504Z,74.88
2018-01-14T03:52:41.732Z,75.36
2018-01-14T03:53:41.714Z,75.26
2018-01-14T03:55:33.886Z,75.64
2018-01-14T03:56:33.894Z,75.45
2018-01-14T03:58:26.024Z,75.45
2018-01-14T03:59:26.034Z,75.36
2018-01-14T04:01:18.257Z,75.26
2018-01-14T04:02:18.229Z,74.98
2018-01-14T04:04:11.421Z,75.93
2018-01-14T04:05:11.413Z,75.55
2018-01-14T04:07:03.567Z,75.36
2018-01-14T04:08:03.567Z,75.45
2018-01-14T04:09:56.743Z,75.26
2018-01-14T04:10:56.724Z,75.07
2018-01-14T04:12:48.887Z,75.55
2018-01-14T04:13:48.912Z,75.83
2018-01-14T04:15:57.429Z,75.45
2018-01-14T04:16:57.431Z,75.26
2018-01-14T04:18:49.559Z,75.74
2018-01-14T04:19:49.571Z,75.74
2018-01-14T04:21:41.773Z,75.64
2018-01-14T04:22:41.767Z,75.45
2018-01-14T04:24:33.942Z,75.45
2018-01-14T04:25:33.942Z,75.17
2018-01-14T04:27:26.142Z,75.45
2018-01-14T04:28:26.105Z,75.74
2018-01-14T04:30:18.265Z,75.55
2018-01-14T04:31:18.280Z,75.55
2018-01-14T04:33:11.427Z,75.45
2018-01-14T04:34:11.433Z,75.83
2018-01-14T04:36:03.607Z,75.55
2018-01-14T04:37:03.616Z,75.45
2018-01-14T04:38:56.749Z,75.55
2018-01-14T04:39:56.760Z,75.26
2018-01-14T04:41:48.961Z,75.55
2018-01-14T04:42:48.968Z,75.26
2018-01-14T04:44:42.131Z,76.40
2018-01-14T04:45:42.128Z,76.59
2018-01-14T04:47:46.032Z,76.21
2018-01-14T04:48:46.035Z,76.68
2018-01-14T04:50:38.221Z,76.50
2018-01-14T04:51:38.211Z,76.21
2018-01-14T04:53:46.717Z,76.12
2018-01-14T04:54:46.764Z,76.40
2018-01-14T04:56:38.924Z,76.59
2018-01-14T04:57:38.940Z,76.40
2018-01-14T04:59:31.152Z,76.40
2018-01-14T05:00:31.125Z,75.83
2018-01-14T05:02:23.266Z,76.40
2018-01-14T05:03:23.279Z,76.59
2018-01-14T05:05:15.492Z,76.78
2018-01-14T05:06:15.497Z,75.83
2018-01-14T05:08:07.644Z,75.93
2018-01-14T05:09:07.681Z,75.74
2018-01-14T05:10:59.881Z,76.12
2018-01-14T05:11:59.853Z,76.31
2018-01-14T05:13:52.012Z,76.40
2018-01-14T05:14:52.022Z,76.50
2018-01-14T05:17:01.597Z,76.50
2018-01-14T05:18:01.560Z,76.50
2018-01-14T05:19:53.935Z,76.31
2018-01-14T05:20:53.901Z,76.02
2018-01-14T05:22:46.093Z,75.93
2018-01-14T05:23:46.100Z,76.12
2018-01-14T05:25:38.412Z,76.40
2018-01-14T05:26:38.403Z,76.50
2018-01-14T05:28:30.565Z,76.21
2018-01-14T05:29:30.585Z,76.59
2018-01-14T05:31:22.743Z,76.50
2018-01-14T05:32:22.750Z,76.68
2018-01-14T05:34:14.887Z,76.50
2018-01-14T05:35:14.897Z,76.40
2018-01-14T05:37:07.070Z,76.87
2018-01-14T05:38:07.065Z,76.59
2018-01-14T05:40:00.204Z,76.97
2018-01-14T05:41:00.224Z,76.78
2018-01-14T05:42:52.385Z,77.25
2018-01-14T05:43:52.416Z,76.97
2018-01-14T05:45:45.608Z,76.40
2018-01-14T05:46:45.585Z,76.97
2018-01-14T05:48:37.823Z,77.44
2018-01-14T05:49:37.807Z,77.34
2018-01-14T05:51:30.977Z,77.34
2018-01-14T05:52:30.987Z,77.15
2018-01-14T05:54:23.165Z,77.44
2018-01-14T05:55:23.156Z,77.53
2018-01-14T05:57:16.318Z,77.72
2018-01-14T05:58:16.319Z,77.44
2018-01-14T06:00:08.507Z,77.15
2018-01-14T06:01:08.490Z,77.44
2018-01-14T06:03:00.654Z,77.53
2018-01-14T06:04:00.695Z,77.31
2018-01-14T06:05:52.925Z,78.10
2018-01-14T06:06:52.883Z,78.10
2018-01-14T06:08:45.098Z,77.87
2018-01-14T06:09:45.125Z,77.91
2018-01-14T06:11:37.306Z,78.10
2018-01-14T06:12:37.300Z,78.01
2018-01-14T06:14:29.543Z,78.06
2018-01-14T06:15:29.498Z,77.69
2018-01-14T06:17:21.677Z,78.10
2018-01-14T06:18:21.646Z,78.01
2018-01-14T06:20:14.841Z,77.63
2018-01-14T06:21:14.843Z,77.59
2018-01-14T06:23:07.033Z,78.01
2018-01-14T06:24:07.037Z,77.97
2018-01-14T06:26:00.172Z,78.06
2018-01-14T06:27:00.202Z,77.59
2018-01-14T06:29:03.027Z,77.97
2018-01-14T06:30:03.034Z,77.78
2018-01-14T06:31:55.199Z,78.91
2018-01-14T06:32:55.186Z,78.91
2018-01-14T06:34:47.457Z,78.16
2018-01-14T06:35:47.348Z,78.81
2018-01-14T06:37:39.526Z,79.00
2018-01-14T06:38:39.519Z,79.10
2018-01-14T06:40:31.710Z,78.53
2018-01-14T06:41:31.682Z,78.72
2018-01-14T06:43:23.891Z,79.00
2018-01-14T06:44:23.909Z,78.91
2018-01-14T06:46:33.383Z,78.81
2018-01-14T06:47:33.383Z,79.10
2018-01-14T06:49:25.561Z,79.38
2018-01-14T06:50:25.574Z,79.29
2018-01-14T06:52:17.746Z,78.67
2018-01-14T06:53:17.701Z,78.72
2018-01-14T06:55:09.833Z,79.29
2018-01-14T06:56:09.944Z,79.29
2018-01-14T06:58:02.033Z,79.10
2018-01-14T06:59:02.013Z,78.91
2018-01-14T07:01:07.536Z,79.10
2018-01-14T07:02:07.526Z,79.19
2018-01-14T07:03:59.688Z,79.29
2018-01-14T07:04:59.710Z,79.86
2018-01-14T07:06:51.899Z,79.00
2018-01-14T07:07:51.886Z,78.91
2018-01-14T07:09:44.043Z,79.76
2018-01-14T07:10:44.050Z,79.76
2018-01-14T07:12:36.215Z,80.14
2018-01-14T07:13:36.214Z,79.76
2018-01-14T07:15:28.422Z,78.91
2018-01-14T07:16:28.413Z,79.29
2018-01-14T07:18:20.642Z,79.86
2018-01-14T07:19:20.625Z,79.57
2018-01-14T07:22:46.066Z,79.76
2018-01-14T07:23:45.364Z,79.67
2018-01-14T07:25:37.504Z,79.95
2018-01-14T07:26:37.534Z,79.57
2018-01-14T07:28:29.817Z,80.14
2018-01-14T07:29:29.711Z,79.76
2018-01-14T07:31:21.870Z,79.48
2018-01-14T07:32:21.887Z,79.76
2018-01-14T07:34:14.134Z,79.76
2018-01-14T07:35:14.098Z,79.67
2018-01-14T07:37:06.283Z,79.48
2018-01-14T07:38:06.292Z,79.67
2018-01-14T07:39:58.501Z,79.86
2018-01-14T07:40:58.487Z,79.86
2018-01-14T07:42:50.743Z,79.76
2018-01-14T07:43:50.714Z,80.14
2018-01-14T07:45:42.878Z,80.05
2018-01-14T07:46:42.964Z,79.67
2018-01-14T07:48:35.114Z,79.95
2018-01-14T07:49:35.101Z,80.05
2018-01-14T07:51:27.345Z,79.67
2018-01-14T07:52:27.361Z,79.76
2018-01-14T07:54:20.496Z,80.14
2018-01-14T07:55:20.494Z,80.05
2018-01-14T07:57:12.717Z,80.05
2018-01-14T07:58:12.738Z,79.67
2018-01-14T08:00:05.894Z,79.48
2018-01-14T08:01:05.895Z,79.57
2018-01-14T08:02:58.149Z,79.76
2018-01-14T08:03:58.152Z,79.57
2018-01-14T08:05:50.379Z,79.67
2018-01-14T08:06:50.354Z,79.57
2018-01-14T08:08:42.523Z,79.86
2018-01-14T08:09:42.535Z,79.76
2018-01-14T08:11:34.725Z,79.48
2018-01-14T08:12:34.726Z,79.57
2018-01-14T08:14:26.876Z,79.76
2018-01-14T08:15:26.888Z,79.76
2018-01-14T08:17:19.135Z,79.80
2018-01-14T08:18:19.107Z,79.86
2018-01-14T08:20:11.267Z,79.29
2018-01-14T08:21:11.248Z,79.57
2018-01-14T08:23:03.492Z,79.57
2018-01-14T08:24:03.469Z,79.52
2018-01-14T08:25:55.629Z,79.71
2018-01-14T08:26:55.632Z,79.67
2018-01-14T08:28:58.541Z,79.57
2018-01-14T08:29:58.538Z,80.05
2018-01-14T08:31:50.712Z,79.10
2018-01-14T08:32:50.705Z,79.95
2018-01-14T08:34:42.889Z,79.00
2018-01-14T08:35:42.888Z,79.99
2018-01-14T08:37:35.046Z,79.05
2018-01-14T08:38:35.033Z,79.33
2018-01-14T08:40:27.258Z,79.14
2018-01-14T08:41:27.266Z,78.95
2018-01-14T08:43:19.411Z,78.58
2018-01-14T08:44:19.407Z,78.95
2018-01-14T08:46:11.596Z,78.95
2018-01-14T08:47:11.598Z,78.76
2018-01-14T08:49:03.724Z,78.76
2018-01-14T08:50:03.727Z,78.58
2018-01-14T08:51:55.931Z,78.76
2018-01-14T08:52:55.864Z,78.58
2018-01-14T08:54:48.039Z,78.10
2018-01-14T08:55:48.056Z,78.58
2018-01-14T08:57:41.256Z,77.91
2018-01-14T08:58:41.174Z,77.72
2018-01-14T09:00:33.359Z,78.20
2018-01-14T09:01:33.393Z,77.82
2018-01-14T09:03:25.532Z,77.72
2018-01-14T09:04:25.509Z,78.20
2018-01-14T09:06:17.672Z,77.82
2018-01-14T09:07:17.703Z,77.72
2018-01-14T09:09:09.872Z,77.72
2018-01-14T09:10:09.876Z,77.15
2018-01-14T09:12:02.026Z,77.15
2018-01-14T09:13:02.003Z,77.44
2018-01-14T09:14:55.142Z,77.25
2018-01-14T09:15:55.160Z,76.97
2018-01-14T09:17:47.352Z,77.15
2018-01-14T09:18:47.348Z,77.06
2018-01-14T09:20:39.496Z,76.40
2018-01-14T09:21:39.498Z,76.40
2018-01-14T09:23:31.663Z,76.50
2018-01-14T09:24:31.723Z,76.59
2018-01-14T09:26:23.824Z,75.83
2018-01-14T09:27:23.828Z,75.55
2018-01-14T09:29:15.996Z,75.83
2018-01-14T09:30:16.006Z,75.49
2018-01-14T09:32:08.141Z,75.49
2018-01-14T09:33:08.143Z,75.26
2018-01-14T09:35:00.340Z,75.87
2018-01-14T09:36:00.372Z,75.68
2018-01-14T09:37:52.538Z,75.12
2018-01-14T09:38:52.520Z,75.36
2018-01-14T09:40:44.713Z,74.74
2018-01-14T09:41:44.725Z,75.49
2018-01-14T09:43:36.888Z,75.31
2018-01-14T09:44:36.896Z,75.02
2018-01-14T09:46:30.063Z,73.69
2018-01-14T09:47:30.041Z,74.36
2018-01-14T09:49:23.198Z,73.88
2018-01-14T09:50:23.183Z,74.45
2018-01-14T09:52:15.445Z,74.17
2018-01-14T09:53:15.353Z,73.88
2018-01-14T09:55:24.057Z,75.12
2018-01-14T09:56:24.117Z,75.59
2018-01-14T09:58:26.918Z,75.21
2018-01-14T09:59:26.918Z,74.93
2018-01-14T10:01:19.141Z,74.74
2018-01-14T10:02:19.149Z,74.93
2018-01-14T10:04:12.305Z,75.02
2018-01-14T10:05:12.312Z,75.12
2018-01-14T10:07:05.474Z,74.26
2018-01-14T10:08:05.461Z,74.36
2018-01-14T10:09:58.636Z,74.17
2018-01-14T10:10:58.638Z,74.17
2018-01-14T10:12:51.803Z,74.36
2018-01-14T10:13:51.793Z,74.26
2018-01-14T10:15:44.956Z,74.26
2018-01-14T10:16:44.962Z,74.74
2018-01-14T10:18:38.145Z,74.55
2018-01-14T10:19:38.150Z,73.69
2018-01-14T10:21:48.166Z,73.88
2018-01-14T10:22:47.681Z,74.64
2018-01-14T10:24:39.857Z,74.26
2018-01-14T10:25:39.851Z,74.07
2018-01-14T10:27:46.358Z,73.60
2018-01-14T10:28:46.352Z,73.60
2018-01-14T10:30:38.505Z,74.07
2018-01-14T10:31:38.532Z,73.79
2018-01-14T10:33:30.753Z,73.88
2018-01-14T10:34:30.749Z,74.55
2018-01-14T10:36:36.226Z,74.07
2018-01-14T10:37:36.233Z,73.69
2018-01-14T10:39:28.395Z,74.26
2018-01-14T10:40:28.386Z,74.26
2018-01-14T10:42:20.566Z,73.79
2018-01-14T10:43:20.588Z,73.88
2018-01-14T10:45:12.768Z,74.26
2018-01-14T10:46:12.765Z,74.45
2018-01-14T10:48:04.940Z,75.12
2018-01-14T10:49:04.930Z,74.74
2018-01-14T10:50:58.240Z,75.49
2018-01-14T10:51:58.081Z,75.31
2018-01-14T10:53:50.274Z,74.36
2018-01-14T10:54:50.264Z,74.17
2018-01-14T10:56:42.471Z,74.36
2018-01-14T10:57:42.464Z,74.83
2018-01-14T10:59:35.634Z,74.55
2018-01-14T11:00:35.632Z,74.36
2018-01-14T11:02:28.765Z,74.64
2018-01-14T11:03:28.786Z,75.40
2018-01-14T11:05:21.945Z,73.98
2018-01-14T11:06:21.938Z,74.07
2018-01-14T11:08:15.142Z,73.98
2018-01-14T11:09:15.102Z,74.36
2018-01-14T11:11:08.262Z,74.07
2018-01-14T11:12:08.270Z,74.83
2018-01-14T11:14:01.410Z,74.26
2018-01-14T11:15:01.403Z,74.26
2018-01-14T11:16:54.644Z,74.36
2018-01-14T11:17:54.659Z,74.17
2018-01-14T11:19:47.913Z,74.17
2018-01-14T11:20:47.845Z,74.07
2018-01-14T11:22:41.136Z,73.69
2018-01-14T11:23:41.001Z,73.98
2018-01-14T11:25:34.141Z,73.13
2018-01-14T11:26:34.145Z,73.79
2018-01-14T11:28:27.326Z,74.17
2018-01-14T11:29:27.334Z,74.26
2018-01-14T11:31:20.480Z,73.69
2018-01-14T11:32:20.499Z,74.83
2018-01-14T11:34:13.662Z,75.87
2018-01-14T11:35:13.664Z,76.91
2018-01-14T11:37:06.826Z,75.87
2018-01-14T11:38:06.833Z,76.53
2018-01-14T11:39:58.994Z,77.39
2018-01-14T11:40:58.992Z,78.80
2018-01-14T11:42:52.168Z,74.64
2018-01-14T11:43:52.183Z,74.07
2018-01-14T11:45:45.328Z,73.79
2018-01-14T11:46:45.398Z,73.79
2018-01-14T11:48:38.503Z,73.50
2018-01-14T11:49:38.494Z,73.79
2018-01-14T11:51:30.689Z,73.22
2018-01-14T11:52:30.693Z,73.79
2018-01-14T11:54:23.880Z,73.79
2018-01-14T11:55:23.892Z,73.88
2018-01-14T11:57:17.042Z,73.60
2018-01-14T11:58:17.071Z,73.03
2018-01-14T12:00:10.202Z,73.41
2018-01-14T12:01:10.210Z,73.22
2018-01-14T12:03:03.359Z,73.32
2018-01-14T12:04:03.365Z,74.26
2018-01-14T12:05:56.549Z,74.36
2018-01-14T12:06:56.540Z,73.79
2018-01-14T12:08:49.703Z,72.94
2018-01-14T12:09:49.700Z,73.60
2018-01-14T12:11:41.881Z,72.94
2018-01-14T12:12:42.583Z,73.13
2018-01-14T12:14:35.042Z,72.75
2018-01-14T12:15:35.051Z,72.94
2018-01-14T12:17:28.199Z,72.56
2018-01-14T12:18:28.210Z,72.50
2018-01-14T12:20:21.362Z,73.32
2018-01-14T12:21:21.374Z,72.66
2018-01-14T12:23:14.510Z,72.94
2018-01-14T12:24:14.530Z,72.56
2018-01-14T12:26:07.691Z,72.66
2018-01-14T12:27:07.689Z,72.60
2018-01-14T12:29:00.892Z,72.56
2018-01-14T12:30:00.841Z,72.94
2018-01-14T12:31:53.025Z,73.03
2018-01-14T12:32:52.999Z,73.22
2018-01-14T12:34:45.261Z,72.56
2018-01-14T12:35:45.255Z,72.37
2018-01-14T12:37:38.399Z,72.09
2018-01-14T12:38:38.399Z,73.22
2018-01-14T12:40:31.686Z,75.43
2018-01-14T12:41:31.557Z,77.14
2018-01-14T12:43:23.709Z,75.72
2018-01-14T12:44:23.735Z,76.00
2018-01-14T12:46:16.943Z,76.19
2018-01-14T12:47:16.938Z,75.24
2018-01-14T12:49:10.075Z,74.40
2018-01-14T12:50:10.099Z,75.72
2018-01-14T12:52:03.257Z,75.24
2018-01-14T12:53:03.260Z,73.83
2018-01-14T12:54:56.409Z,75.34
2018-01-14T12:55:56.415Z,75.15
2018-01-14T12:57:49.588Z,74.77
2018-01-14T12:58:49.572Z,75.43
2018-01-14T13:01:01.156Z,75.43
2018-01-14T13:02:01.156Z,75.34
2018-01-14T13:03:54.284Z,73.64
2018-01-14T13:04:54.347Z,74.11
2018-01-14T13:06:47.452Z,74.21
2018-01-14T13:07:47.461Z,74.49
2018-01-14T13:09:40.602Z,73.92
2018-01-14T13:10:40.631Z,73.64
2018-01-14T13:12:33.788Z,74.11
2018-01-14T13:13:33.778Z,74.87
2018-01-14T13:15:26.968Z,74.55
2018-01-14T13:16:26.942Z,74.17
2018-01-14T13:18:20.139Z,75.43
2018-01-14T13:19:20.130Z,77.61
2018-01-14T13:21:12.319Z,75.53
2018-01-14T13:22:12.297Z,75.34
2018-01-14T13:24:05.536Z,74.58
2018-01-14T13:25:05.491Z,75.24
2018-01-14T13:26:58.722Z,74.45
2018-01-14T13:27:58.724Z,74.26
2018-01-14T13:29:51.884Z,75.34
2018-01-14T13:30:51.914Z,74.21
2018-01-14T13:32:45.180Z,75.02
2018-01-14T13:33:45.193Z,74.74
2018-01-14T13:35:38.337Z,73.98
2018-01-14T13:36:38.336Z,74.11
2018-01-14T13:38:32.240Z,74.21
2018-01-14T13:39:31.537Z,74.21
2018-01-14T13:41:23.744Z,74.40
2018-01-14T13:42:23.755Z,74.30
2018-01-14T13:44:15.871Z,74.17
2018-01-14T13:45:15.881Z,74.36
2018-01-14T13:47:08.108Z,74.74
2018-01-14T13:48:08.107Z,74.55
2018-01-14T13:50:00.275Z,75.78
2018-01-14T13:51:00.307Z,75.49
2018-01-14T13:52:53.443Z,75.31
2018-01-14T13:53:53.451Z,75.21
2018-01-14T13:55:45.680Z,76.63
2018-01-14T13:56:45.687Z,76.44
2018-01-14T13:58:38.572Z,76.53
2018-01-14T13:59:37.904Z,75.96
2018-01-14T14:01:30.127Z,75.87
2018-01-14T14:02:30.123Z,75.31
2018-01-14T14:04:22.331Z,75.87
2018-01-14T14:05:22.331Z,75.59
2018-01-14T14:07:15.533Z,75.40
2018-01-14T14:08:15.533Z,75.68
2018-01-14T14:10:07.739Z,75.59
2018-01-14T14:11:07.729Z,75.59
2018-01-14T14:13:00.942Z,76.63
2018-01-14T14:14:00.931Z,75.87
2018-01-14T14:15:54.086Z,75.59
2018-01-14T14:16:54.094Z,75.21
2018-01-14T14:18:47.996Z,75.78
2018-01-14T14:19:47.283Z,75.59
2018-01-14T14:21:39.541Z,75.21
2018-01-14T14:22:39.558Z,75.68
2018-01-14T14:24:31.785Z,75.59
2018-01-14T14:25:31.795Z,76.25
2018-01-14T14:27:40.316Z,76.44
2018-01-14T14:28:40.325Z,76.63
2018-01-14T14:30:33.572Z,76.63
2018-01-14T14:31:33.509Z,75.59
2018-01-14T14:33:26.661Z,76.63
2018-01-14T14:34:26.658Z,75.78
2018-01-14T14:36:19.824Z,75.59
2018-01-14T14:37:19.827Z,75.78
2018-01-14T14:39:12.975Z,76.53
2018-01-14T14:40:12.990Z,76.63
2018-01-14T14:42:06.139Z,76.53
2018-01-14T14:43:06.149Z,76.15
2018-01-14T14:44:59.280Z,76.44
2018-01-14T14:45:59.293Z,76.34
2018-01-14T14:48:08.800Z,76.44
2018-01-14T14:49:08.795Z,76.06
2018-01-14T14:51:01.922Z,76.91
2018-01-14T14:52:01.934Z,76.53
2018-01-14T14:53:55.116Z,76.72
2018-01-14T14:54:55.132Z,76.91
2018-01-14T14:56:48.616Z,77.10
2018-01-14T14:57:48.332Z,76.53
2018-01-14T14:59:41.522Z,76.44
2018-01-14T15:00:41.545Z,76.44
2018-01-14T15:02:35.029Z,76.44
2018-01-14T15:03:34.760Z,76.72
2018-01-14T15:05:27.916Z,76.91
2018-01-14T15:06:27.930Z,77.29
2018-01-14T15:08:21.102Z,77.01
2018-01-14T15:09:21.103Z,77.15
2018-01-14T15:11:14.261Z,77.58
2018-01-14T15:12:14.266Z,77.67
2018-01-14T15:14:07.428Z,77.48
2018-01-14T15:15:07.438Z,77.48
2018-01-14T15:17:00.571Z,77.44
2018-01-14T15:18:00.568Z,77.44
2018-01-14T15:19:53.731Z,77.86
2018-01-14T15:20:53.744Z,77.76
2018-01-14T15:22:46.910Z,77.58
2018-01-14T15:23:46.906Z,77.86
2018-01-14T15:25:40.036Z,77.15
2018-01-14T15:26:40.053Z,77.20
2018-01-14T15:28:33.218Z,77.39
2018-01-14T15:29:33.224Z,77.63
2018-01-14T15:31:26.379Z,77.82
2018-01-14T15:32:26.375Z,77.15
2018-01-14T15:34:19.632Z,78.01
2018-01-14T15:35:19.562Z,78.10
2018-01-14T15:37:12.714Z,77.82
2018-01-14T15:38:12.707Z,77.53
2018-01-14T15:40:04.841Z,77.82
2018-01-14T15:41:04.874Z,77.95
2018-01-14T15:42:57.988Z,76.68
2018-01-14T15:43:58.014Z,76.87
2018-01-14T15:45:50.181Z,76.50
2018-01-14T15:46:50.134Z,76.78
2018-01-14T15:48:42.306Z,76.59
2018-01-14T15:49:42.332Z,76.78
2018-01-14T15:51:34.494Z,76.59
2018-01-14T15:52:34.496Z,76.50
2018-01-14T15:54:27.615Z,76.40
2018-01-14T15:55:27.608Z,76.78
2018-01-14T15:57:20.807Z,76.68
2018-01-14T15:58:20.799Z,76.31
2018-01-14T16:00:13.967Z,76.68
2018-01-14T16:01:13.973Z,76.40
2018-01-14T16:03:06.113Z,76.40
2018-01-14T16:04:06.117Z,76.31
2018-01-14T16:05:59.291Z,76.87
2018-01-14T16:06:59.291Z,76.59
2018-01-14T16:08:52.449Z,76.31
2018-01-14T16:09:52.450Z,76.87
2018-01-14T16:11:45.623Z,76.68
2018-01-14T16:12:45.631Z,76.31
2018-01-14T16:14:38.764Z,76.97
2018-01-14T16:15:38.776Z,76.68
2018-01-14T16:17:32.254Z,76.87
2018-01-14T16:18:31.938Z,76.40
2018-01-14T16:20:25.080Z,76.68
2018-01-14T16:21:25.092Z,76.40
2018-01-14T16:23:18.262Z,76.59
2018-01-14T16:24:18.261Z,76.97
2018-01-14T16:26:11.397Z,76.59
2018-01-14T16:27:11.417Z,76.40
2018-01-14T16:29:04.571Z,76.40
2018-01-14T16:30:04.582Z,76.50
2018-01-14T16:31:57.740Z,76.59
2018-01-14T16:32:57.738Z,76.59
2018-01-14T16:34:50.950Z,77.06
2018-01-14T16:35:50.967Z,76.40
2018-01-14T16:37:44.111Z,76.78
2018-01-14T16:38:44.124Z,76.50
2018-01-14T16:40:37.274Z,76.87
2018-01-14T16:41:37.374Z,77.15
2018-01-14T16:43:30.441Z,77.44
2018-01-14T16:44:30.440Z,76.87
2018-01-14T16:46:23.615Z,77.15
2018-01-14T16:47:23.642Z,76.68
2018-01-14T16:49:16.792Z,76.97
2018-01-14T16:50:16.787Z,77.15
2018-01-14T16:52:09.959Z,76.87
2018-01-14T16:53:09.961Z,76.87
2018-01-14T16:55:03.148Z,77.06
2018-01-14T16:56:03.157Z,77.15
2018-01-14T16:57:56.298Z,77.34
2018-01-14T16:58:56.300Z,77.34
2018-01-14T17:00:49.491Z,77.44
2018-01-14T17:01:49.473Z,77.44
2018-01-14T17:03:42.664Z,77.72
2018-01-14T17:04:42.638Z,77.44
2018-01-14T17:06:35.842Z,77.06
2018-01-14T17:07:35.919Z,77.06
2018-01-14T17:09:46.458Z,77.91
2018-01-14T17:10:46.445Z,77.72
2018-01-14T17:12:52.078Z,77.25
2018-01-14T17:13:52.074Z,77.44
2018-01-14T17:15:45.296Z,78.29
2018-01-14T17:16:45.230Z,78.10
2018-01-14T17:18:38.404Z,78.67
2018-01-14T17:19:38.420Z,78.48
2018-01-14T17:21:31.544Z,78.58
2018-01-14T17:22:31.553Z,77.91
2018-01-14T17:24:24.746Z,78.48
2018-01-14T17:25:24.735Z,79.71
2018-01-14T17:27:17.896Z,79.24
2018-01-14T17:28:17.929Z,78.86
2018-01-14T17:30:11.099Z,78.67
2018-01-14T17:31:11.091Z,78.29
2018-01-14T17:33:04.273Z,79.52
2018-01-14T17:34:04.270Z,79.14
2018-01-14T17:35:57.429Z,78.86
2018-01-14T17:36:57.432Z,79.14
2018-01-14T17:38:50.630Z,79.24
2018-01-14T17:39:50.634Z,78.86
2018-01-14T17:41:43.784Z,79.71
2018-01-14T17:42:43.804Z,79.14
2018-01-14T17:44:36.957Z,79.05
2018-01-14T17:45:36.954Z,79.24
2018-01-14T17:47:30.108Z,79.43
2018-01-14T17:48:30.139Z,79.14
2018-01-14T17:50:23.298Z,79.61
2018-01-14T17:51:23.261Z,79.14
2018-01-14T17:53:16.792Z,78.76
2018-01-14T17:54:16.423Z,79.05
2018-01-14T17:56:09.573Z,79.24
2018-01-14T17:57:09.594Z,79.99
2018-01-14T17:59:02.749Z,79.14
2018-01-14T18:00:02.758Z,79.43
2018-01-14T18:01:55.897Z,79.33
2018-01-14T18:02:55.914Z,80.08
2018-01-14T18:04:49.056Z,79.99
2018-01-14T18:05:49.063Z,79.80
2018-01-14T18:07:42.217Z,79.99
2018-01-14T18:08:42.223Z,79.71
2018-01-14T18:10:35.428Z,79.33
2018-01-14T18:11:35.502Z,79.05
2018-01-14T18:13:28.550Z,79.05
2018-01-14T18:14:28.546Z,79.14
2018-01-14T18:16:21.681Z,79.99
2018-01-14T18:17:21.698Z,79.05
2018-01-14T18:19:30.278Z,79.24
2018-01-14T18:20:30.187Z,78.95
2018-01-14T18:22:23.439Z,79.71
2018-01-14T18:23:23.438Z,80.27
2018-01-14T18:25:16.596Z,79.33
2018-01-14T18:26:16.595Z,80.18
2018-01-14T18:28:09.755Z,79.05
2018-01-14T18:29:09.762Z,79.90
2018-01-14T18:31:03.048Z,79.90
2018-01-14T18:32:03.058Z,79.80
2018-01-14T18:33:56.276Z,79.71
2018-01-14T18:34:56.274Z,79.90
2018-01-14T18:36:49.403Z,79.99
2018-01-14T18:37:49.427Z,80.37
2018-01-14T18:39:42.604Z,79.80